Time;durP1;ratioP1;P1;durP2;ratioP2;P2;SDS_P1;SDS_P2;PMS_P1;PMS_P2;Temp;Humidity;BMP_temperature;BMP_pressure;BME280_temperature;BME280_humidity;BME280_pressure;Samples;Min_cycle;Max_cycle;Signal;HPM_P1;HPM_P2
2022/08/31 00:05:32;;;;;;;11.77;9.05;;;;;;;;;;4389644;32;20416;-83
2022/08/31 00:07:59;;;;;;;13.32;9.10;;;;;;;;;;4389048;32;20271;-83
2022/08/31 00:10:28;;;;;;;14.52;9.50;;;;;;;;;;4390151;32;20543;-83
2022/08/31 00:12:57;;;;;;;15.15;9.32;;;;;;;;;;4389069;32;20619;-84
2022/08/31 00:15:32;;;;;;;12.82;9.45;;;;;;;;;;4390923;32;20643;-89
2022/08/31 00:17:59;;;;;;;10.82;8.93;;;;;;;;;;4395349;32;20694;-84
2022/08/31 00:20:28;;;;;;;15.60;8.95;;;;;;;;;;4388267;32;20701;-84
2022/08/31 00:22:56;;;;;;;14.93;9.38;;;;;;;;;;4388474;32;20539;-84
2022/08/31 00:25:23;;;;;;;14.27;9.10;;;;;;;;;;4388398;32;20555;-84
2022/08/31 00:27:51;;;;;;;11.48;9.32;;;;;;;;;;4388496;32;20643;-88
2022/08/31 00:30:20;;;;;;;14.87;10.32;;;;;;;;;;4388409;32;20508;-83
2022/08/31 00:32:48;;;;;;;13.32;9.02;;;;;;;;;;4388304;32;20649;-82
2022/08/31 00:35:16;;;;;;;13.57;9.23;;;;;;;;;;4388439;32;20512;-83
2022/08/31 00:37:43;;;;;;;10.57;9.43;;;;;;;;;;4388213;32;20523;-84
2022/08/31 00:40:13;;;;;;;17.65;9.27;;;;;;;;;;4388364;32;20239;-84
2022/08/31 00:42:41;;;;;;;19.35;10.02;;;;;;;;;;4388466;32;20210;-84
2022/08/31 00:45:10;;;;;;;9.57;8.35;;;;;;;;;;4388236;32;20622;-84
2022/08/31 00:47:39;;;;;;;22.83;9.43;;;;;;;;;;4388195;32;20604;-84
2022/08/31 00:50:10;;;;;;;16.45;9.82;;;;;;;;;;4388662;32;20580;-84
2022/08/31 00:52:40;;;;;;;15.90;9.70;;;;;;;;;;4388194;32;20277;-84
2022/08/31 00:55:12;;;;;;;14.45;9.85;;;;;;;;;;4388046;32;20524;-84
2022/08/31 00:57:44;;;;;;;11.77;8.93;;;;;;;;;;4388812;32;20637;-84
2022/08/31 01:00:23;;;;;;;11.40;9.18;;;;;;;;;;4391740;32;20582;-93
2022/08/31 01:02:58;;;;;;;16.02;9.45;;;;;;;;;;4393739;32;20570;-94
2022/08/31 01:05:26;;;;;;;17.33;9.40;;;;;;;;;;4391853;32;20680;-83
2022/08/31 01:07:54;;;;;;;16.15;10.27;;;;;;;;;;4391027;32;20647;-84
2022/08/31 01:10:24;;;;;;;11.52;9.85;;;;;;;;;;4391052;32;20683;-83
2022/08/31 01:12:55;;;;;;;11.73;10.00;;;;;;;;;;4391094;32;20232;-84
2022/08/31 01:15:23;;;;;;;14.85;10.32;;;;;;;;;;4391257;32;20617;-84
2022/08/31 01:17:55;;;;;;;12.35;9.55;;;;;;;;;;4391892;32;20635;-84
2022/08/31 01:20:28;;;;;;;13.20;10.45;;;;;;;;;;4390978;32;20226;-84
2022/08/31 01:23:10;;;;;;;15.38;10.88;;;;;;;;;;4391955;32;20654;-85
2022/08/31 01:25:39;;;;;;;24.83;11.38;;;;;;;;;;4391152;32;20548;-84
2022/08/31 01:28:09;;;;;;;14.27;10.48;;;;;;;;;;4391413;32;20599;-83
2022/08/31 01:30:37;;;;;;;14.90;10.65;;;;;;;;;;4390828;32;20297;-83
2022/08/31 01:33:05;;;;;;;15.70;10.07;;;;;;;;;;4390698;32;20587;-83
2022/08/31 01:35:34;;;;;;;15.23;9.85;;;;;;;;;;4390698;32;20620;-83
2022/08/31 01:38:02;;;;;;;17.05;10.20;;;;;;;;;;4390716;32;20252;-84
2022/08/31 01:40:35;;;;;;;13.30;11.20;;;;;;;;;;4390495;32;20784;-84
2022/08/31 01:43:03;;;;;;;22.62;10.05;;;;;;;;;;4390764;32;20599;-82
2022/08/31 01:45:30;;;;;;;12.50;10.10;;;;;;;;;;4390928;32;20631;-83
2022/08/31 01:48:00;;;;;;;12.85;10.38;;;;;;;;;;4390677;32;20304;-84
2022/08/31 01:50:27;;;;;;;18.35;11.63;;;;;;;;;;4390573;32;20629;-83
2022/08/31 01:52:55;;;;;;;17.65;10.77;;;;;;;;;;4390760;32;20724;-83
2022/08/31 01:55:22;;;;;;;20.48;10.82;;;;;;;;;;4390290;32;20586;-83
2022/08/31 01:57:51;;;;;;;12.93;10.60;;;;;;;;;;4390466;32;20559;-83
2022/08/31 02:00:19;;;;;;;19.33;10.88;;;;;;;;;;4390677;32;20710;-85
2022/08/31 02:02:46;;;;;;;26.92;12.07;;;;;;;;;;4390286;32;20586;-84
2022/08/31 02:05:14;;;;;;;17.35;10.23;;;;;;;;;;4390228;32;20579;-83
2022/08/31 02:07:42;;;;;;;13.82;9.90;;;;;;;;;;4389920;32;20568;-86
2022/08/31 02:10:10;;;;;;;12.23;10.30;;;;;;;;;;4390186;32;20531;-83
2022/08/31 02:12:38;;;;;;;16.67;11.25;;;;;;;;;;4390278;32;20734;-83
2022/08/31 02:15:09;;;;;;;19.50;10.98;;;;;;;;;;4391278;32;20299;-84
2022/08/31 02:17:37;;;;;;;16.90;10.90;;;;;;;;;;4391307;32;20626;-83
2022/08/31 02:20:05;;;;;;;14.02;11.23;;;;;;;;;;4390318;32;20300;-82
2022/08/31 02:22:33;;;;;;;16.67;10.77;;;;;;;;;;4389905;32;20579;-82
2022/08/31 02:25:00;;;;;;;17.17;11.65;;;;;;;;;;4390281;32;20241;-82
2022/08/31 02:27:28;;;;;;;17.92;10.68;;;;;;;;;;4390054;32;20229;-84
2022/08/31 02:29:55;;;;;;;13.45;10.02;;;;;;;;;;4389942;32;20611;-83
2022/08/31 02:32:26;;;;;;;19.02;12.07;;;;;;;;;;4392259;32;20628;-83
2022/08/31 02:34:54;;;;;;;18.05;12.25;;;;;;;;;;4390342;32;20552;-83
2022/08/31 02:37:21;;;;;;;23.58;12.20;;;;;;;;;;4390467;32;20699;-83
2022/08/31 02:39:49;;;;;;;19.85;10.38;;;;;;;;;;4390149;32;20623;-83
2022/08/31 02:42:16;;;;;;;19.20;11.18;;;;;;;;;;4389855;32;20627;-83
2022/08/31 02:44:44;;;;;;;13.15;10.98;;;;;;;;;;4389549;32;20249;-82
2022/08/31 02:47:11;;;;;;;20.55;11.82;;;;;;;;;;4390351;32;20548;-83
2022/08/31 02:49:41;;;;;;;19.27;10.35;;;;;;;;;;4389758;32;20555;-83
2022/08/31 02:52:08;;;;;;;14.13;9.68;;;;;;;;;;4389605;32;20512;-82
2022/08/31 02:54:36;;;;;;;21.73;12.43;;;;;;;;;;4389691;32;20547;-83
2022/08/31 02:57:03;;;;;;;17.30;11.40;;;;;;;;;;4389806;32;20485;-89
2022/08/31 02:59:31;;;;;;;19.25;10.32;;;;;;;;;;4392119;32;20540;-85
2022/08/31 03:01:58;;;;;;;18.52;11.45;;;;;;;;;;4391532;32;20332;-83
2022/08/31 03:04:26;;;;;;;15.82;10.88;;;;;;;;;;4389920;32;20695;-85
2022/08/31 03:06:55;;;;;;;18.48;11.68;;;;;;;;;;4389425;32;20270;-81
2022/08/31 03:09:23;;;;;;;14.48;11.02;;;;;;;;;;4389386;32;20577;-82
2022/08/31 03:11:50;;;;;;;15.32;11.27;;;;;;;;;;4389365;32;20604;-83
2022/08/31 03:14:18;;;;;;;22.37;11.48;;;;;;;;;;4389430;32;20690;-83
2022/08/31 03:16:46;;;;;;;17.77;10.93;;;;;;;;;;4389358;32;20539;-83
2022/08/31 03:19:13;;;;;;;22.83;11.63;;;;;;;;;;4389239;32;20641;-83
2022/08/31 03:21:40;;;;;;;19.23;12.23;;;;;;;;;;4389513;32;20535;-83
2022/08/31 03:24:10;;;;;;;19.40;10.35;;;;;;;;;;4387638;32;20567;-83
2022/08/31 03:26:37;;;;;;;16.20;10.80;;;;;;;;;;4389594;32;20588;-84
2022/08/31 03:29:05;;;;;;;13.77;10.52;;;;;;;;;;4388822;32;20595;-83
2022/08/31 03:31:32;;;;;;;12.05;10.15;;;;;;;;;;4389219;32;20610;-84
2022/08/31 03:34:00;;;;;;;17.83;11.63;;;;;;;;;;4388957;32;20333;-83
2022/08/31 03:36:27;;;;;;;18.55;10.70;;;;;;;;;;4388929;32;20299;-84
2022/08/31 03:38:55;;;;;;;28.15;12.50;;;;;;;;;;4389563;32;20577;-83
2022/08/31 03:41:26;;;;;;;14.98;10.88;;;;;;;;;;4389893;32;20626;-83
2022/08/31 03:43:54;;;;;;;13.68;10.57;;;;;;;;;;4389075;32;20639;-83
2022/08/31 03:46:21;;;;;;;15.77;11.48;;;;;;;;;;4389045;32;20595;-83
2022/08/31 03:48:49;;;;;;;19.87;11.20;;;;;;;;;;4389004;32;20573;-82
2022/08/31 03:51:18;;;;;;;17.55;10.85;;;;;;;;;;4389073;32;20574;-83
2022/08/31 03:53:47;;;;;;;16.10;11.32;;;;;;;;;;4389725;32;20610;-82
2022/08/31 03:56:14;;;;;;;13.85;10.88;;;;;;;;;;4390052;32;20644;-82
2022/08/31 03:58:43;;;;;;;11.88;9.60;;;;;;;;;;4394606;32;20559;-80
2022/08/31 04:01:13;;;;;;;22.08;10.15;;;;;;;;;;4396793;32;20615;-80
2022/08/31 04:03:41;;;;;;;19.90;10.93;;;;;;;;;;4392696;32;20587;-82
2022/08/31 04:06:10;;;;;;;14.98;10.63;;;;;;;;;;4389145;32;20539;-82
2022/08/31 04:08:39;;;;;;;19.50;11.48;;;;;;;;;;4388939;32;20577;-81
2022/08/31 04:11:10;;;;;;;23.20;11.45;;;;;;;;;;4389474;32;20767;-82
2022/08/31 04:13:39;;;;;;;18.00;11.68;;;;;;;;;;4388636;32;20328;-82
2022/08/31 04:16:10;;;;;;;20.37;12.25;;;;;;;;;;4388673;32;20679;-82
2022/08/31 04:18:39;;;;;;;16.92;12.07;;;;;;;;;;4388684;32;20535;-85
2022/08/31 04:21:11;;;;;;;20.02;11.70;;;;;;;;;;4388909;32;20629;-83
2022/08/31 04:23:39;;;;;;;13.95;11.30;;;;;;;;;;4389811;32;20651;-84
2022/08/31 04:26:09;;;;;;;13.82;11.57;;;;;;;;;;4389233;32;20712;-82
2022/08/31 04:28:37;;;;;;;18.15;11.75;;;;;;;;;;4389048;32;20708;-87
2022/08/31 04:31:08;;;;;;;13.32;10.95;;;;;;;;;;4388912;32;20535;-84
2022/08/31 04:33:37;;;;;;;14.70;11.60;;;;;;;;;;4388825;32;20281;-83
2022/08/31 04:36:07;;;;;;;12.75;11.40;;;;;;;;;;4391715;32;20614;-82
2022/08/31 04:38:35;;;;;;;20.02;12.00;;;;;;;;;;4391367;32;20535;-83
2022/08/31 04:41:08;;;;;;;16.70;10.85;;;;;;;;;;4391514;32;20614;-83
2022/08/31 04:43:36;;;;;;;16.25;10.52;;;;;;;;;;4393721;32;20677;-83
2022/08/31 04:46:05;;;;;;;16.73;10.95;;;;;;;;;;4391891;32;20580;-81
2022/08/31 04:48:35;;;;;;;19.83;11.07;;;;;;;;;;4391578;32;20298;-83
2022/08/31 04:51:03;;;;;;;22.92;12.82;;;;;;;;;;4391791;32;20266;-83
2022/08/31 04:53:31;;;;;;;21.73;11.12;;;;;;;;;;4391757;32;20567;-83
2022/08/31 04:55:58;;;;;;;18.92;11.77;;;;;;;;;;4391625;32;20270;-83
2022/08/31 04:58:26;;;;;;;18.12;12.48;;;;;;;;;;4391488;32;20615;-83
2022/08/31 05:00:54;;;;;;;24.12;13.10;;;;;;;;;;4391312;32;20232;-81
2022/08/31 05:03:22;;;;;;;21.25;11.38;;;;;;;;;;4391143;32;20626;-81
2022/08/31 05:05:52;;;;;;;19.77;11.27;;;;;;;;;;4391278;32;20557;-82
2022/08/31 05:08:20;;;;;;;24.67;11.95;;;;;;;;;;4391047;32;20624;-81
2022/08/31 05:10:48;;;;;;;19.55;11.20;;;;;;;;;;4391905;32;20701;-89
2022/08/31 05:13:17;;;;;;;23.85;12.32;;;;;;;;;;4391092;32;20656;-81
2022/08/31 05:15:45;;;;;;;17.33;11.63;;;;;;;;;;4391237;32;20546;-83
2022/08/31 05:18:12;;;;;;;18.37;10.88;;;;;;;;;;4391229;32;20391;-83
2022/08/31 05:20:40;;;;;;;25.40;12.37;;;;;;;;;;4391021;32;20554;-83
2022/08/31 05:23:09;;;;;;;25.90;12.20;;;;;;;;;;4390853;32;20563;-82
2022/08/31 05:25:40;;;;;;;20.37;12.15;;;;;;;;;;4391353;32;20268;-83
2022/08/31 05:28:09;;;;;;;15.75;12.27;;;;;;;;;;4391140;32;20767;-83
2022/08/31 05:30:37;;;;;;;25.65;14.18;;;;;;;;;;4390818;32;20555;-83
2022/08/31 05:33:04;;;;;;;22.83;15.82;;;;;;;;;;4391009;32;20233;-83
2022/08/31 05:35:32;;;;;;;20.88;14.95;;;;;;;;;;4391129;32;20618;-82
2022/08/31 05:38:00;;;;;;;28.73;14.50;;;;;;;;;;4390506;32;20658;-82
2022/08/31 05:40:29;;;;;;;27.40;12.77;;;;;;;;;;4390598;32;20641;-83
2022/08/31 05:42:58;;;;;;;36.90;14.87;;;;;;;;;;4390546;32;20264;-84
2022/08/31 05:45:25;;;;;;;18.90;11.57;;;;;;;;;;4390991;32;20592;-83
2022/08/31 05:47:53;;;;;;;22.60;12.35;;;;;;;;;;4390126;32;20621;-85
2022/08/31 05:50:21;;;;;;;26.55;12.88;;;;;;;;;;4390760;32;20540;-83
2022/08/31 05:52:48;;;;;;;23.45;14.18;;;;;;;;;;4390725;32;20638;-82
2022/08/31 05:55:16;;;;;;;16.12;11.30;;;;;;;;;;4390894;32;20635;-82
2022/08/31 05:57:45;;;;;;;16.20;10.05;;;;;;;;;;4390423;32;20584;-84
2022/08/31 06:00:13;;;;;;;13.40;8.63;;;;;;;;;;4390466;32;20593;-83
2022/08/31 06:02:41;;;;;;;11.18;8.32;;;;;;;;;;4389875;32;20602;-84
2022/08/31 06:05:09;;;;;;;14.77;10.45;;;;;;;;;;4390210;32;20700;-84
2022/08/31 06:07:36;;;;;;;21.60;10.07;;;;;;;;;;4389983;32;20309;-84
2022/08/31 06:10:05;;;;;;;14.45;10.13;;;;;;;;;;4392196;32;20519;-91
2022/08/31 06:12:33;;;;;;;15.23;11.80;;;;;;;;;;4390388;32;20612;-83
2022/08/31 06:15:04;;;;;;;18.27;12.80;;;;;;;;;;4390336;32;20516;-83
2022/08/31 06:17:32;;;;;;;18.98;13.10;;;;;;;;;;4390923;32;20570;-84
2022/08/31 06:20:00;;;;;;;18.92;11.65;;;;;;;;;;4390368;32;20553;-81
2022/08/31 06:22:28;;;;;;;23.12;13.55;;;;;;;;;;4390222;32;20301;-85
2022/08/31 06:24:55;;;;;;;21.37;13.90;;;;;;;;;;4390088;32;20273;-85
2022/08/31 06:27:23;;;;;;;24.45;13.88;;;;;;;;;;4389874;32;20599;-81
2022/08/31 06:29:51;;;;;;;24.83;15.55;;;;;;;;;;4390020;32;20536;-82
2022/08/31 06:32:20;;;;;;;22.48;14.82;;;;;;;;;;4390278;32;20653;-85
2022/08/31 06:34:48;;;;;;;24.40;16.02;;;;;;;;;;4390366;32;20673;-84
2022/08/31 06:37:15;;;;;;;18.35;14.45;;;;;;;;;;4390005;32;20605;-84
2022/08/31 06:39:43;;;;;;;21.85;15.02;;;;;;;;;;4390272;32;20540;-85
2022/08/31 06:42:11;;;;;;;16.62;14.87;;;;;;;;;;4389822;32;20565;-84
2022/08/31 06:44:38;;;;;;;15.75;13.62;;;;;;;;;;4390194;32;20397;-84
2022/08/31 06:47:06;;;;;;;16.92;12.63;;;;;;;;;;4389999;32;20543;-84
2022/08/31 06:49:35;;;;;;;18.42;12.80;;;;;;;;;;4390166;32;20594;-83
2022/08/31 06:52:03;;;;;;;18.45;14.30;;;;;;;;;;4390062;32;20581;-85
2022/08/31 06:54:31;;;;;;;18.92;13.45;;;;;;;;;;4390161;32;20709;-83
2022/08/31 06:56:59;;;;;;;15.77;13.13;;;;;;;;;;4390279;32;20391;-86
2022/08/31 06:59:27;;;;;;;16.45;13.60;;;;;;;;;;4390415;32;20615;-86
2022/08/31 07:01:54;;;;;;;20.90;13.77;;;;;;;;;;4390325;32;20337;-86
2022/08/31 07:04:22;;;;;;;18.75;13.62;;;;;;;;;;4390495;32;20607;-85
2022/08/31 07:06:51;;;;;;;15.50;13.57;;;;;;;;;;4390625;32;20547;-84
2022/08/31 07:09:19;;;;;;;20.05;14.40;;;;;;;;;;4389409;32;20848;-84
2022/08/31 07:11:50;;;;;;;21.58;13.68;;;;;;;;;;4390808;32;20611;-85
2022/08/31 07:14:20;;;;;;;22.45;13.00;;;;;;;;;;4390236;32;20551;-85
2022/08/31 07:16:48;;;;;;;18.10;12.88;;;;;;;;;;4390460;32;20558;-85
2022/08/31 07:19:16;;;;;;;19.65;13.30;;;;;;;;;;4392907;32;20237;-85
2022/08/31 07:21:46;;;;;;;14.10;12.68;;;;;;;;;;4391121;32;20524;-85
2022/08/31 07:24:23;;;;;;;18.87;11.60;;;;;;;;;;4390992;32;20357;-85
2022/08/31 07:26:53;;;;;;;21.15;14.23;;;;;;;;;;4391192;32;20550;-84
2022/08/31 07:29:23;;;;;;;17.42;13.00;;;;;;;;;;4390917;32;20590;-85
2022/08/31 07:31:51;;;;;;;19.62;13.38;;;;;;;;;;4391936;32;20551;-83
2022/08/31 07:34:24;;;;;;;15.88;11.35;;;;;;;;;;4393858;32;20733;-84
2022/08/31 07:42:28;;;;;;;17.85;10.90;;;;;;;;;;4391147;32;20579;-85
2022/08/31 07:44:59;;;;;;;13.05;11.50;;;;;;;;;;4391134;32;20587;-84
2022/08/31 07:47:28;;;;;;;17.35;12.15;;;;;;;;;;4390405;32;20524;-85
2022/08/31 07:49:59;;;;;;;19.62;12.15;;;;;;;;;;4391598;32;20533;-84
2022/08/31 07:52:30;;;;;;;16.20;13.75;;;;;;;;;;4389682;32;20580;-85
2022/08/31 07:55:05;;;;;;;21.90;12.68;;;;;;;;;;4389413;32;20673;-85
2022/08/31 07:57:37;;;;;;;18.70;12.43;;;;;;;;;;4389372;32;20247;-86
2022/08/31 08:00:08;;;;;;;21.33;12.45;;;;;;;;;;4389559;32;20529;-84
2022/08/31 08:02:38;;;;;;;18.60;13.77;;;;;;;;;;4388909;32;20574;-84
2022/08/31 08:05:08;;;;;;;13.62;11.45;;;;;;;;;;4388894;32;20206;-84
2022/08/31 08:07:36;;;;;;;17.20;12.85;;;;;;;;;;4388943;32;20680;-85
2022/08/31 08:10:12;;;;;;;17.55;12.48;;;;;;;;;;4388743;32;20536;-85
2022/08/31 08:12:40;;;;;;;13.82;10.73;;;;;;;;;;4388922;32;20614;-84
2022/08/31 08:15:09;;;;;;;15.73;13.13;;;;;;;;;;4389015;32;20513;-84
2022/08/31 08:17:36;;;;;;;16.35;11.60;;;;;;;;;;4388705;32;20383;-85
2022/08/31 08:20:05;;;;;;;21.48;13.20;;;;;;;;;;4389815;32;20531;-83
2022/08/31 08:22:33;;;;;;;15.40;12.73;;;;;;;;;;4390670;32;20676;-84
2022/08/31 08:25:03;;;;;;;23.23;12.65;;;;;;;;;;4390311;32;20222;-85
2022/08/31 08:27:34;;;;;;;21.73;12.07;;;;;;;;;;4391583;32;20581;-84
2022/08/31 08:30:02;;;;;;;15.13;12.75;;;;;;;;;;4391648;32;20608;-87
2022/08/31 08:32:30;;;;;;;18.40;13.68;;;;;;;;;;4390242;32;20612;-84
2022/08/31 08:34:58;;;;;;;16.12;12.90;;;;;;;;;;4388913;32;20561;-85
2022/08/31 08:37:27;;;;;;;19.55;12.40;;;;;;;;;;4388620;32;20741;-84
2022/08/31 08:39:58;;;;;;;20.67;14.45;;;;;;;;;;4388704;32;20532;-85
2022/08/31 08:42:26;;;;;;;15.13;12.65;;;;;;;;;;4388908;32;20342;-84
2022/08/31 08:44:56;;;;;;;16.48;14.20;;;;;;;;;;4388966;32;20607;-85
2022/08/31 08:47:29;;;;;;;20.88;13.60;;;;;;;;;;4388760;32;20556;-84
2022/08/31 08:50:04;;;;;;;16.85;14.10;;;;;;;;;;4389235;32;20579;-85
2022/08/31 08:52:35;;;;;;;23.95;13.43;;;;;;;;;;4389447;32;20549;-86
2022/08/31 08:55:06;;;;;;;16.95;13.23;;;;;;;;;;4389654;32;20591;-86
2022/08/31 08:57:37;;;;;;;16.87;13.43;;;;;;;;;;4389967;32;20352;-84
2022/08/31 09:00:11;;;;;;;26.08;13.15;;;;;;;;;;4389132;32;20653;-85
2022/08/31 09:02:43;;;;;;;23.60;14.48;;;;;;;;;;4388793;32;20420;-83
2022/08/31 09:05:33;;;;;;;25.12;14.20;;;;;;;;;;4391717;32;20531;-85
2022/08/31 09:08:22;;;;;;;16.70;12.68;;;;;;;;;;4389808;32;20310;-86
2022/08/31 09:11:07;;;;;;;14.38;12.70;;;;;;;;;;4389965;32;20727;-83
2022/08/31 09:13:52;;;;;;;13.98;12.50;;;;;;;;;;4388664;32;20360;-84
2022/08/31 09:16:37;;;;;;;15.25;11.98;;;;;;;;;;4388489;32;20276;-85
2022/08/31 09:19:09;;;;;;;18.00;12.80;;;;;;;;;;4388204;32;20562;-84
2022/08/31 09:21:39;;;;;;;17.60;11.93;;;;;;;;;;4389330;32;20618;-85
2022/08/31 09:24:10;;;;;;;17.55;12.20;;;;;;;;;;4391201;32;20681;-83
2022/08/31 09:26:54;;;;;;;29.40;13.02;;;;;;;;;;4391015;32;20600;-85
2022/08/31 09:29:23;;;;;;;13.70;11.95;;;;;;;;;;4390975;32;20539;-82
2022/08/31 09:32:00;;;;;;;17.85;11.90;;;;;;;;;;4391411;32;20634;-85
2022/08/31 09:34:31;;;;;;;14.57;11.18;;;;;;;;;;4391174;32;20519;-83
2022/08/31 09:37:13;;;;;;;21.15;12.13;;;;;;;;;;4391382;32;20600;-86
2022/08/31 09:39:41;;;;;;;15.77;9.88;;;;;;;;;;4391071;32;20579;-84
2022/08/31 09:42:18;;;;;;;21.67;12.40;;;;;;;;;;4390940;32;20615;-85
2022/08/31 09:44:49;;;;;;;18.70;10.77;;;;;;;;;;4391172;32;20683;-84
2022/08/31 09:50:30;;;;;;;18.62;11.00;;;;;;;;;;4448356;32;20260;-83
2022/08/31 09:56:20;;;;;;;21.67;10.32;;;;;;;;;;4349672;32;20254;-85
2022/08/31 09:58:51;;;;;;;19.15;10.63;;;;;;;;;;4417310;32;20607;-86
2022/08/31 10:01:31;;;;;;;16.87;12.02;;;;;;;;;;4417669;32;20542;-82
2022/08/31 10:04:18;;;;;;;23.27;11.68;;;;;;;;;;4417264;32;20581;-87
2022/08/31 10:06:48;;;;;;;14.35;10.38;;;;;;;;;;4418323;32;20245;-85
2022/08/31 10:09:25;;;;;;;13.73;10.40;;;;;;;;;;4418729;32;20737;-84
2022/08/31 10:11:56;;;;;;;13.27;11.10;;;;;;;;;;4417675;32;20644;-81
2022/08/31 10:14:34;;;;;;;14.50;9.90;;;;;;;;;;4417122;32;20610;-84
2022/08/31 10:17:09;;;;;;;18.95;10.20;;;;;;;;;;4417887;32;20540;-83
2022/08/31 10:19:56;;;;;;;14.80;10.45;;;;;;;;;;4417929;32;20225;-82
2022/08/31 10:22:32;;;;;;;14.48;10.93;;;;;;;;;;4417105;32;20551;-82
2022/08/31 10:25:10;;;;;;;19.50;10.48;;;;;;;;;;4418074;32;20589;-82
2022/08/31 10:27:43;;;;;;;17.50;10.57;;;;;;;;;;4417529;32;20189;-82
2022/08/31 10:30:23;;;;;;;14.93;10.90;;;;;;;;;;4418147;32;20509;-82
2022/08/31 10:32:57;;;;;;;12.73;10.10;;;;;;;;;;4417867;32;20550;-81
2022/08/31 10:35:36;;;;;;;18.98;10.88;;;;;;;;;;4417447;32;20522;-81
2022/08/31 10:38:16;;;;;;;19.25;11.12;;;;;;;;;;4417312;32;20624;-81
2022/08/31 10:40:49;;;;;;;14.48;9.55;;;;;;;;;;4417989;32;20610;-82
2022/08/31 10:43:20;;;;;;;15.70;11.02;;;;;;;;;;4417633;32;20562;-81
2022/08/31 10:45:51;;;;;;;16.30;9.85;;;;;;;;;;4417322;32;20549;-82
2022/08/31 10:48:21;;;;;;;14.30;10.02;;;;;;;;;;4417320;32;20591;-81
2022/08/31 10:51:04;;;;;;;14.13;10.35;;;;;;;;;;4417160;32;20214;-82
2022/08/31 10:53:46;;;;;;;17.05;10.20;;;;;;;;;;4416808;32;20535;-82
2022/08/31 10:56:19;;;;;;;18.60;10.05;;;;;;;;;;4416768;32;20616;-81
2022/08/31 10:59:00;;;;;;;15.43;9.57;;;;;;;;;;4417376;32;20551;-81
2022/08/31 11:01:44;;;;;;;13.05;9.57;;;;;;;;;;4407162;32;20377;-81
2022/08/31 11:04:35;;;;;;;19.60;10.88;;;;;;;;;;4406637;32;20574;-82
2022/08/31 11:07:12;;;;;;;11.70;9.40;;;;;;;;;;4406597;32;20674;-81
2022/08/31 11:09:53;;;;;;;21.00;10.13;;;;;;;;;;4407163;32;20691;-82
2022/08/31 11:12:28;;;;;;;16.95;8.93;;;;;;;;;;4407012;32;20586;-82
2022/08/31 11:15:29;;;;;;;12.80;9.63;;;;;;;;;;4406387;32;20229;-82
2022/08/31 11:18:14;;;;;;;15.13;9.40;;;;;;;;;;4405898;32;20511;-82
2022/08/31 11:21:01;;;;;;;14.32;8.73;;;;;;;;;;4405746;32;20523;-82
2022/08/31 11:23:43;;;;;;;20.70;9.05;;;;;;;;;;4405349;32;20233;-82
2022/08/31 11:26:49;;;;;;;15.25;8.38;;;;;;;;;;4405761;32;20542;-82
2022/08/31 11:29:35;;;;;;;10.88;8.40;;;;;;;;;;4394268;32;20589;-82
2022/08/31 11:32:10;;;;;;;9.90;8.90;;;;;;;;;;4405766;32;20681;-83
2022/08/31 11:34:46;;;;;;;14.73;9.07;;;;;;;;;;4405854;32;20292;-82
2022/08/31 11:37:34;;;;;;;8.68;7.87;;;;;;;;;;4405799;32;20636;-82
2022/08/31 11:40:02;;;;;;;17.27;9.63;;;;;;;;;;4405430;32;20692;-82
2022/08/31 11:42:59;;;;;;;10.55;9.43;;;;;;;;;;4405164;32;20531;-82
2022/08/31 11:45:30;;;;;;;15.45;8.60;;;;;;;;;;4405537;32;20493;-82
2022/08/31 11:47:59;;;;;;;20.25;10.00;;;;;;;;;;4406296;32;20236;-82
2022/08/31 11:51:02;;;;;;;12.15;8.00;;;;;;;;;;4406360;32;20202;-80
2022/08/31 11:53:36;;;;;;;13.88;8.10;;;;;;;;;;4406061;32;20535;-82
2022/08/31 11:56:05;;;;;;;14.02;8.88;;;;;;;;;;4405299;32;20539;-82
2022/08/31 11:58:38;;;;;;;17.20;8.25;;;;;;;;;;4405102;32;20667;-82
2022/08/31 12:01:29;;;;;;;18.67;9.95;;;;;;;;;;4405245;32;20530;-82
2022/08/31 12:04:02;;;;;;;11.65;6.43;;;;;;;;;;4405061;32;20360;-83
2022/08/31 12:07:06;;;;;;;14.13;6.10;;;;;;;;;;4405073;32;20566;-82
2022/08/31 12:09:57;;;;;;;11.60;5.05;;;;;;;;;;4404950;32;20672;-83
2022/08/31 12:12:44;;;;;;;13.77;4.65;;;;;;;;;;4404489;32;20240;-82
2022/08/31 12:15:20;;;;;;;8.45;4.05;;;;;;;;;;4405333;32;20687;-82
2022/08/31 12:18:01;;;;;;;12.75;4.00;;;;;;;;;;4405272;32;20595;-82
2022/08/31 12:23:37;;;;;;;7.07;4.22;;;;;;;;;;4404884;32;20275;-82
2022/08/31 12:26:33;;;;;;;11.38;4.28;;;;;;;;;;4404908;32;20568;-82
2022/08/31 12:29:22;;;;;;;6.35;4.25;;;;;;;;;;4404753;32;20562;-82
2022/08/31 12:32:18;;;;;;;7.70;4.07;;;;;;;;;;4404686;32;20570;-82
2022/08/31 12:34:49;;;;;;;9.68;5.07;;;;;;;;;;4391545;32;20574;-83
2022/08/31 12:37:23;;;;;;;8.18;4.62;;;;;;;;;;4404973;32;20603;-82
2022/08/31 12:40:10;;;;;;;6.50;3.65;;;;;;;;;;4404634;32;20570;-82
2022/08/31 12:42:43;;;;;;;5.87;4.15;;;;;;;;;;4404603;32;20601;-82
2022/08/31 12:45:14;;;;;;;7.03;4.50;;;;;;;;;;4404638;32;20272;-83
2022/08/31 12:47:55;;;;;;;7.53;4.65;;;;;;;;;;4405076;32;20623;-82
2022/08/31 12:50:33;;;;;;;14.57;4.78;;;;;;;;;;4404835;32;20275;-82
2022/08/31 12:53:19;;;;;;;10.93;4.35;;;;;;;;;;4404548;32;20733;-82
2022/08/31 12:55:51;;;;;;;7.53;5.47;;;;;;;;;;4404464;32;20260;-82
2022/08/31 12:58:38;;;;;;;7.47;5.80;;;;;;;;;;4404235;32;20611;-81
2022/08/31 13:01:09;;;;;;;10.27;5.68;;;;;;;;;;4403721;32;20613;-81
2022/08/31 13:03:39;;;;;;;8.82;5.70;;;;;;;;;;4404770;32;20540;-81
2022/08/31 13:06:12;;;;;;;10.75;5.60;;;;;;;;;;4404470;32;20522;-82
2022/08/31 13:08:42;;;;;;;13.90;6.15;;;;;;;;;;4403860;32;20593;-81
2022/08/31 13:11:22;;;;;;;11.75;6.32;;;;;;;;;;4404307;32;20554;-81
2022/08/31 13:13:50;;;;;;;16.73;5.78;;;;;;;;;;4404231;32;20521;-81
2022/08/31 13:16:18;;;;;;;13.30;6.57;;;;;;;;;;4403950;32;20554;-82
2022/08/31 13:18:49;;;;;;;12.52;6.18;;;;;;;;;;4404004;32;20590;-82
2022/08/31 13:21:22;;;;;;;12.45;5.85;;;;;;;;;;4404098;32;20519;-81
2022/08/31 13:23:49;;;;;;;8.70;7.05;;;;;;;;;;4403918;32;20368;-81
2022/08/31 13:26:21;;;;;;;11.85;6.12;;;;;;;;;;4404036;32;20339;-81
2022/08/31 13:28:51;;;;;;;12.18;6.20;;;;;;;;;;4403884;32;20613;-80
2022/08/31 13:31:22;;;;;;;10.38;6.22;;;;;;;;;;4404010;32;20617;-81
2022/08/31 13:33:51;;;;;;;10.38;6.35;;;;;;;;;;4404027;32;20650;-81
2022/08/31 13:36:31;;;;;;;12.25;6.72;;;;;;;;;;4404113;32;20597;-82
2022/08/31 13:39:01;;;;;;;8.05;6.07;;;;;;;;;;4403809;32;20664;-81
2022/08/31 13:41:34;;;;;;;8.98;6.80;;;;;;;;;;4403695;32;20549;-81
2022/08/31 13:44:07;;;;;;;10.25;6.35;;;;;;;;;;4403664;32;20684;-82
2022/08/31 13:46:37;;;;;;;10.27;6.57;;;;;;;;;;4403890;32;20651;-81
2022/08/31 13:49:09;;;;;;;10.43;6.72;;;;;;;;;;4403561;32;20783;-81
2022/08/31 13:51:47;;;;;;;10.95;6.85;;;;;;;;;;4403891;32;20668;-82
2022/08/31 13:54:25;;;;;;;13.48;6.95;;;;;;;;;;4403760;32;20768;-81
2022/08/31 13:56:57;;;;;;;13.50;7.55;;;;;;;;;;4403758;32;20288;-80
2022/08/31 13:59:34;;;;;;;14.68;7.55;;;;;;;;;;4403546;32;20300;-81
2022/08/31 14:02:05;;;;;;;14.98;7.03;;;;;;;;;;4403716;32;20603;-81
2022/08/31 14:04:47;;;;;;;16.58;8.52;;;;;;;;;;4403454;32;20229;-81
2022/08/31 14:07:20;;;;;;;9.68;7.57;;;;;;;;;;4403301;32;20676;-81
2022/08/31 14:09:50;;;;;;;18.85;7.60;;;;;;;;;;4403226;32;20650;-81
2022/08/31 14:12:35;;;;;;;26.67;6.85;;;;;;;;;;4403643;32;20695;-81
2022/08/31 14:15:08;;;;;;;9.38;7.65;;;;;;;;;;4403525;32;20331;-81
2022/08/31 14:17:40;;;;;;;8.82;6.97;;;;;;;;;;4403859;32;20598;-82
2022/08/31 14:20:32;;;;;;;10.45;8.02;;;;;;;;;;4403776;32;20539;-82
2022/08/31 14:23:31;;;;;;;10.32;5.70;;;;;;;;;;4403673;32;20535;-82
2022/08/31 14:26:01;;;;;;;6.82;4.93;;;;;;;;;;4403668;32;20595;-81
2022/08/31 14:31:25;;;;;;;14.52;5.85;;;;;;;;;;4399749;32;20245;-81
2022/08/31 14:34:05;;;;;;;9.60;5.68;;;;;;;;;;4403357;32;20291;-81
2022/08/31 14:36:49;;;;;;;17.87;6.55;;;;;;;;;;4405797;32;20584;-82
2022/08/31 14:39:17;;;;;;;11.05;6.03;;;;;;;;;;4406244;32;20508;-81
2022/08/31 14:41:45;;;;;;;13.45;6.93;;;;;;;;;;4406023;32;20626;-81
2022/08/31 14:44:13;;;;;;;12.43;7.00;;;;;;;;;;4405917;32;20582;-82
2022/08/31 14:46:42;;;;;;;13.00;7.35;;;;;;;;;;4405973;32;20578;-81
2022/08/31 14:49:10;;;;;;;13.13;7.65;;;;;;;;;;4405856;32;20263;-81
2022/08/31 14:51:42;;;;;;;12.85;7.07;;;;;;;;;;4406313;32;20599;-82
2022/08/31 14:54:10;;;;;;;15.38;8.48;;;;;;;;;;4405570;32;20615;-81
2022/08/31 14:56:45;;;;;;;13.45;8.43;;;;;;;;;;4405707;32;20596;-81
2022/08/31 14:59:14;;;;;;;14.38;8.30;;;;;;;;;;4405810;32;20549;-81
2022/08/31 15:01:43;;;;;;;9.43;8.05;;;;;;;;;;4405928;32;20678;-82
2022/08/31 15:04:12;;;;;;;21.62;9.25;;;;;;;;;;4405740;32;20690;-82
2022/08/31 15:06:42;;;;;;;15.63;8.93;;;;;;;;;;4405454;32;20554;-82
2022/08/31 15:09:09;;;;;;;10.73;9.32;;;;;;;;;;4405493;32;20650;-81
2022/08/31 15:11:38;;;;;;;13.95;8.82;;;;;;;;;;4405636;32;20314;-82
2022/08/31 15:14:11;;;;;;;12.40;8.93;;;;;;;;;;4405788;32;20636;-82